sensor_id;sensor_type;location;lat;lon;timestamp;P1;durP1;ratioP1;P2;durP2;ratioP2
54919;SDS011;63804;53.120;8.764;2023-10-31T00:00:37;7.30;;;4.72;;
54919;SDS011;63804;53.120;8.764;2023-10-31T00:03:04;8.15;;;5.63;;
54919;SDS011;63804;53.120;8.764;2023-10-31T00:05:32;8.02;;;5.13;;
54919;SDS011;63804;53.120;8.764;2023-10-31T00:08:00;8.80;;;5.30;;
54919;SDS011;63804;53.120;8.764;2023-10-31T00:10:28;8.13;;;5.25;;
54919;SDS011;63804;53.120;8.764;2023-10-31T00:12:59;9.30;;;5.32;;
54919;SDS011;63804;53.120;8.764;2023-10-31T00:15:29;7.45;;;5.32;;
54919;SDS011;63804;53.120;8.764;2023-10-31T00:17:58;10.10;;;5.22;;
54919;SDS011;63804;53.120;8.764;2023-10-31T00:20:25;7.78;;;5.30;;
54919;SDS011;63804;53.120;8.764;2023-10-31T00:22:53;7.55;;;5.13;;
54919;SDS011;63804;53.120;8.764;2023-10-31T00:25:21;8.02;;;5.20;;
54919;SDS011;63804;53.120;8.764;2023-10-31T00:27:48;8.25;;;5.65;;
54919;SDS011;63804;53.120;8.764;2023-10-31T00:30:20;9.48;;;6.38;;
54919;SDS011;63804;53.120;8.764;2023-10-31T00:32:48;8.88;;;5.82;;
54919;SDS011;63804;53.120;8.764;2023-10-31T00:35:16;9.43;;;6.05;;
54919;SDS011;63804;53.120;8.764;2023-10-31T00:37:44;8.75;;;5.05;;
54919;SDS011;63804;53.120;8.764;2023-10-31T00:40:11;7.80;;;5.78;;
54919;SDS011;63804;53.120;8.764;2023-10-31T00:42:39;9.32;;;6.32;;
54919;SDS011;63804;53.120;8.764;2023-10-31T00:45:09;7.50;;;5.32;;
54919;SDS011;63804;53.120;8.764;2023-10-31T00:47:36;8.38;;;5.82;;
54919;SDS011;63804;53.120;8.764;2023-10-31T00:50:04;7.53;;;5.30;;
54919;SDS011;63804;53.120;8.764;2023-10-31T00:52:32;8.05;;;5.05;;
54919;SDS011;63804;53.120;8.764;2023-10-31T00:55:00;8.95;;;5.22;;
54919;SDS011;63804;53.120;8.764;2023-10-31T00:57:28;7.68;;;5.25;;
54919;SDS011;63804;53.120;8.764;2023-10-31T00:59:57;7.28;;;4.97;;
54919;SDS011;63804;53.120;8.764;2023-10-31T01:02:24;8.82;;;5.93;;
54919;SDS011;63804;53.120;8.764;2023-10-31T01:04:52;6.88;;;5.00;;
54919;SDS011;63804;53.120;8.764;2023-10-31T01:07:20;7.30;;;4.80;;
54919;SDS011;63804;53.120;8.764;2023-10-31T01:09:47;6.97;;;5.20;;
54919;SDS011;63804;53.120;8.764;2023-10-31T01:12:15;7.25;;;5.22;;
54919;SDS011;63804;53.120;8.764;2023-10-31T01:14:42;7.07;;;4.78;;
54919;SDS011;63804;53.120;8.764;2023-10-31T01:17:10;7.00;;;4.95;;
54919;SDS011;63804;53.120;8.764;2023-10-31T01:19:38;8.65;;;5.18;;
54919;SDS011;63804;53.120;8.764;2023-10-31T01:22:05;8.32;;;5.55;;
54919;SDS011;63804;53.120;8.764;2023-10-31T01:24:34;8.23;;;5.50;;
54919;SDS011;63804;53.120;8.764;2023-10-31T01:27:02;7.68;;;5.28;;
54919;SDS011;63804;53.120;8.764;2023-10-31T01:29:30;7.03;;;5.13;;
54919;SDS011;63804;53.120;8.764;2023-10-31T01:31:57;8.00;;;5.18;;
54919;SDS011;63804;53.120;8.764;2023-10-31T01:34:31;7.07;;;4.78;;
54919;SDS011;63804;53.120;8.764;2023-10-31T01:36:59;7.70;;;4.90;;
54919;SDS011;63804;53.120;8.764;2023-10-31T01:39:26;6.63;;;4.72;;
54919;SDS011;63804;53.120;8.764;2023-10-31T01:41:54;6.93;;;4.68;;
54919;SDS011;63804;53.120;8.764;2023-10-31T01:44:22;7.10;;;5.00;;
54919;SDS011;63804;53.120;8.764;2023-10-31T01:46:49;6.40;;;4.60;;
54919;SDS011;63804;53.120;8.764;2023-10-31T01:49:17;6.60;;;4.70;;
54919;SDS011;63804;53.120;8.764;2023-10-31T01:51:45;5.93;;;4.15;;
54919;SDS011;63804;53.120;8.764;2023-10-31T01:54:13;6.65;;;4.03;;
54919;SDS011;63804;53.120;8.764;2023-10-31T01:56:41;5.20;;;3.78;;
54919;SDS011;63804;53.120;8.764;2023-10-31T01:59:10;5.82;;;4.05;;
54919;SDS011;63804;53.120;8.764;2023-10-31T02:01:38;5.75;;;4.07;;
54919;SDS011;63804;53.120;8.764;2023-10-31T02:04:09;6.78;;;4.53;;
54919;SDS011;63804;53.120;8.764;2023-10-31T02:06:37;6.93;;;4.68;;
54919;SDS011;63804;53.120;8.764;2023-10-31T02:09:04;5.60;;;4.20;;
54919;SDS011;63804;53.120;8.764;2023-10-31T02:11:32;6.55;;;4.57;;
54919;SDS011;63804;53.120;8.764;2023-10-31T02:14:00;6.93;;;4.63;;
54919;SDS011;63804;53.120;8.764;2023-10-31T02:16:29;7.25;;;4.38;;
54919;SDS011;63804;53.120;8.764;2023-10-31T02:18:56;8.90;;;4.65;;
54919;SDS011;63804;53.120;8.764;2023-10-31T02:21:24;6.13;;;4.38;;
54919;SDS011;63804;53.120;8.764;2023-10-31T02:23:59;5.82;;;4.38;;
54919;SDS011;63804;53.120;8.764;2023-10-31T02:26:31;7.57;;;4.93;;
54919;SDS011;63804;53.120;8.764;2023-10-31T02:29:01;5.83;;;4.30;;
54919;SDS011;63804;53.120;8.764;2023-10-31T02:31:29;9.45;;;5.50;;
54919;SDS011;63804;53.120;8.764;2023-10-31T02:33:57;7.55;;;5.13;;
54919;SDS011;63804;53.120;8.764;2023-10-31T02:36:25;7.50;;;5.38;;
54919;SDS011;63804;53.120;8.764;2023-10-31T02:38:53;7.30;;;5.00;;
54919;SDS011;63804;53.120;8.764;2023-10-31T02:41:20;7.72;;;5.32;;
54919;SDS011;63804;53.120;8.764;2023-10-31T02:43:48;8.10;;;6.00;;
54919;SDS011;63804;53.120;8.764;2023-10-31T02:46:15;7.97;;;5.40;;
54919;SDS011;63804;53.120;8.764;2023-10-31T02:48:43;7.75;;;5.80;;
54919;SDS011;63804;53.120;8.764;2023-10-31T02:51:11;7.88;;;5.38;;
54919;SDS011;63804;53.120;8.764;2023-10-31T02:53:38;9.27;;;6.65;;
54919;SDS011;63804;53.120;8.764;2023-10-31T02:56:06;7.75;;;5.47;;
54919;SDS011;63804;53.120;8.764;2023-10-31T02:58:34;8.10;;;5.50;;
54919;SDS011;63804;53.120;8.764;2023-10-31T03:01:01;7.50;;;5.53;;
54919;SDS011;63804;53.120;8.764;2023-10-31T03:03:29;9.63;;;6.70;;
54919;SDS011;63804;53.120;8.764;2023-10-31T03:05:57;7.55;;;5.55;;
54919;SDS011;63804;53.120;8.764;2023-10-31T03:08:24;8.95;;;6.43;;
54919;SDS011;63804;53.120;8.764;2023-10-31T03:10:52;8.93;;;6.05;;
54919;SDS011;63804;53.120;8.764;2023-10-31T03:13:20;9.63;;;6.28;;
54919;SDS011;63804;53.120;8.764;2023-10-31T03:15:47;9.93;;;7.22;;
54919;SDS011;63804;53.120;8.764;2023-10-31T03:18:15;9.10;;;6.50;;
54919;SDS011;63804;53.120;8.764;2023-10-31T03:20:43;10.40;;;7.03;;
54919;SDS011;63804;53.120;8.764;2023-10-31T03:23:13;8.98;;;6.38;;
54919;SDS011;63804;53.120;8.764;2023-10-31T03:25:41;10.85;;;7.82;;
54919;SDS011;63804;53.120;8.764;2023-10-31T03:28:18;9.65;;;6.65;;
54919;SDS011;63804;53.120;8.764;2023-10-31T03:30:47;12.00;;;7.90;;
54919;SDS011;63804;53.120;8.764;2023-10-31T03:33:15;11.52;;;7.32;;
54919;SDS011;63804;53.120;8.764;2023-10-31T03:35:46;11.02;;;8.48;;
54919;SDS011;63804;53.120;8.764;2023-10-31T03:38:14;11.18;;;7.90;;
54919;SDS011;63804;53.120;8.764;2023-10-31T03:40:42;12.70;;;8.68;;
54919;SDS011;63804;53.120;8.764;2023-10-31T03:43:10;11.38;;;8.25;;
54919;SDS011;63804;53.120;8.764;2023-10-31T03:45:37;11.82;;;7.88;;
54919;SDS011;63804;53.120;8.764;2023-10-31T03:48:05;11.48;;;8.55;;
54919;SDS011;63804;53.120;8.764;2023-10-31T03:50:32;11.57;;;8.60;;
54919;SDS011;63804;53.120;8.764;2023-10-31T03:53:00;12.25;;;8.93;;
54919;SDS011;63804;53.120;8.764;2023-10-31T03:55:28;13.35;;;9.45;;
54919;SDS011;63804;53.120;8.764;2023-10-31T03:57:55;11.90;;;9.00;;
54919;SDS011;63804;53.120;8.764;2023-10-31T04:00:23;11.75;;;9.13;;
54919;SDS011;63804;53.120;8.764;2023-10-31T04:02:51;12.93;;;9.55;;
54919;SDS011;63804;53.120;8.764;2023-10-31T04:05:19;12.15;;;9.30;;
54919;SDS011;63804;53.120;8.764;2023-10-31T04:07:47;12.65;;;9.35;;
54919;SDS011;63804;53.120;8.764;2023-10-31T04:10:18;13.07;;;9.57;;
54919;SDS011;63804;53.120;8.764;2023-10-31T04:12:46;13.50;;;9.95;;
54919;SDS011;63804;53.120;8.764;2023-10-31T04:15:14;12.93;;;9.27;;
54919;SDS011;63804;53.120;8.764;2023-10-31T04:17:41;15.00;;;10.55;;
54919;SDS011;63804;53.120;8.764;2023-10-31T04:20:09;11.40;;;8.50;;
54919;SDS011;63804;53.120;8.764;2023-10-31T04:22:37;12.60;;;9.50;;
54919;SDS011;63804;53.120;8.764;2023-10-31T04:25:05;11.70;;;9.23;;
54919;SDS011;63804;53.120;8.764;2023-10-31T04:27:32;11.98;;;8.65;;
54919;SDS011;63804;53.120;8.764;2023-10-31T04:30:00;11.43;;;8.73;;
54919;SDS011;63804;53.120;8.764;2023-10-31T04:32:28;11.40;;;8.48;;
54919;SDS011;63804;53.120;8.764;2023-10-31T04:34:56;11.85;;;8.38;;
54919;SDS011;63804;53.120;8.764;2023-10-31T04:37:25;11.43;;;8.32;;
54919;SDS011;63804;53.120;8.764;2023-10-31T04:39:52;10.93;;;8.18;;
54919;SDS011;63804;53.120;8.764;2023-10-31T04:42:20;11.73;;;8.98;;
54919;SDS011;63804;53.120;8.764;2023-10-31T04:44:47;10.45;;;8.45;;
54919;SDS011;63804;53.120;8.764;2023-10-31T04:47:15;10.57;;;7.53;;
54919;SDS011;63804;53.120;8.764;2023-10-31T04:49:43;11.18;;;8.68;;
54919;SDS011;63804;53.120;8.764;2023-10-31T04:52:11;11.63;;;8.20;;
54919;SDS011;63804;53.120;8.764;2023-10-31T04:54:39;10.05;;;7.85;;
54919;SDS011;63804;53.120;8.764;2023-10-31T04:57:07;12.00;;;8.85;;
54919;SDS011;63804;53.120;8.764;2023-10-31T04:59:35;10.95;;;8.27;;
54919;SDS011;63804;53.120;8.764;2023-10-31T05:02:03;11.32;;;8.25;;
54919;SDS011;63804;53.120;8.764;2023-10-31T05:04:30;13.30;;;9.38;;
54919;SDS011;63804;53.120;8.764;2023-10-31T05:06:58;12.48;;;9.65;;
54919;SDS011;63804;53.120;8.764;2023-10-31T05:09:25;14.18;;;9.73;;
54919;SDS011;63804;53.120;8.764;2023-10-31T05:11:54;12.65;;;10.32;;
54919;SDS011;63804;53.120;8.764;2023-10-31T05:14:22;12.55;;;10.48;;
54919;SDS011;63804;53.120;8.764;2023-10-31T05:16:50;12.65;;;10.40;;
54919;SDS011;63804;53.120;8.764;2023-10-31T05:19:17;13.15;;;9.93;;
54919;SDS011;63804;53.120;8.764;2023-10-31T05:21:45;13.77;;;10.18;;
54919;SDS011;63804;53.120;8.764;2023-10-31T05:24:12;13.13;;;10.57;;
54919;SDS011;63804;53.120;8.764;2023-10-31T05:26:40;12.98;;;10.48;;
54919;SDS011;63804;53.120;8.764;2023-10-31T05:29:10;12.07;;;9.32;;
54919;SDS011;63804;53.120;8.764;2023-10-31T05:31:38;13.05;;;10.20;;
54919;SDS011;63804;53.120;8.764;2023-10-31T05:34:06;11.27;;;9.00;;
54919;SDS011;63804;53.120;8.764;2023-10-31T05:36:34;12.85;;;9.90;;
54919;SDS011;63804;53.120;8.764;2023-10-31T05:39:02;13.88;;;9.25;;
54919;SDS011;63804;53.120;8.764;2023-10-31T05:41:29;11.98;;;8.82;;
54919;SDS011;63804;53.120;8.764;2023-10-31T05:43:57;10.43;;;7.90;;
54919;SDS011;63804;53.120;8.764;2023-10-31T05:46:24;7.25;;;5.18;;
54919;SDS011;63804;53.120;8.764;2023-10-31T05:48:54;4.70;;;2.97;;
54919;SDS011;63804;53.120;8.764;2023-10-31T05:51:21;2.85;;;1.95;;
54919;SDS011;63804;53.120;8.764;2023-10-31T05:53:49;2.33;;;1.40;;
54919;SDS011;63804;53.120;8.764;2023-10-31T05:56:16;2.90;;;1.00;;
54919;SDS011;63804;53.120;8.764;2023-10-31T05:58:44;1.33;;;0.60;;
54919;SDS011;63804;53.120;8.764;2023-10-31T06:01:12;4.20;;;0.60;;
54919;SDS011;63804;53.120;8.764;2023-10-31T06:03:43;0.80;;;0.50;;
54919;SDS011;63804;53.120;8.764;2023-10-31T06:06:11;1.52;;;0.60;;
54919;SDS011;63804;53.120;8.764;2023-10-31T06:08:40;2.38;;;0.55;;
54919;SDS011;63804;53.120;8.764;2023-10-31T06:11:09;0.85;;;0.30;;
54919;SDS011;63804;53.120;8.764;2023-10-31T06:13:40;0.85;;;0.40;;
54919;SDS011;63804;53.120;8.764;2023-10-31T06:16:07;2.08;;;0.40;;
54919;SDS011;63804;53.120;8.764;2023-10-31T06:18:37;0.95;;;0.30;;
54919;SDS011;63804;53.120;8.764;2023-10-31T06:21:06;2.55;;;0.80;;
54919;SDS011;63804;53.120;8.764;2023-10-31T06:23:39;2.50;;;0.73;;
54919;SDS011;63804;53.120;8.764;2023-10-31T06:26:06;1.92;;;0.60;;
54919;SDS011;63804;53.120;8.764;2023-10-31T06:28:34;1.10;;;0.43;;
54919;SDS011;63804;53.120;8.764;2023-10-31T06:31:11;1.05;;;0.63;;
54919;SDS011;63804;53.120;8.764;2023-10-31T06:33:39;0.65;;;0.35;;
54919;SDS011;63804;53.120;8.764;2023-10-31T06:36:07;1.20;;;0.57;;
54919;SDS011;63804;53.120;8.764;2023-10-31T06:38:35;2.15;;;0.75;;
54919;SDS011;63804;53.120;8.764;2023-10-31T06:41:03;3.25;;;0.50;;
54919;SDS011;63804;53.120;8.764;2023-10-31T06:43:30;3.67;;;0.80;;
54919;SDS011;63804;53.120;8.764;2023-10-31T06:46:01;2.65;;;0.60;;
54919;SDS011;63804;53.120;8.764;2023-10-31T06:48:31;3.22;;;0.70;;
54919;SDS011;63804;53.120;8.764;2023-10-31T06:50:59;4.53;;;0.70;;
54919;SDS011;63804;53.120;8.764;2023-10-31T06:53:26;2.40;;;0.85;;
54919;SDS011;63804;53.120;8.764;2023-10-31T06:55:54;1.50;;;0.50;;
54919;SDS011;63804;53.120;8.764;2023-10-31T06:58:21;2.13;;;0.70;;
54919;SDS011;63804;53.120;8.764;2023-10-31T07:00:49;2.60;;;0.60;;
54919;SDS011;63804;53.120;8.764;2023-10-31T07:03:17;1.65;;;0.55;;
54919;SDS011;63804;53.120;8.764;2023-10-31T07:05:44;1.98;;;0.50;;
54919;SDS011;63804;53.120;8.764;2023-10-31T07:08:12;1.80;;;0.70;;
54919;SDS011;63804;53.120;8.764;2023-10-31T07:10:40;2.15;;;0.60;;
54919;SDS011;63804;53.120;8.764;2023-10-31T07:13:07;2.13;;;0.70;;
54919;SDS011;63804;53.120;8.764;2023-10-31T07:15:35;8.68;;;0.80;;
54919;SDS011;63804;53.120;8.764;2023-10-31T07:18:06;1.70;;;0.70;;
54919;SDS011;63804;53.120;8.764;2023-10-31T07:20:34;3.00;;;0.75;;
54919;SDS011;63804;53.120;8.764;2023-10-31T07:23:02;1.88;;;0.73;;
54919;SDS011;63804;53.120;8.764;2023-10-31T07:25:30;2.25;;;0.70;;
54919;SDS011;63804;53.120;8.764;2023-10-31T07:27:57;2.75;;;0.60;;
54919;SDS011;63804;53.120;8.764;2023-10-31T07:30:25;3.00;;;0.60;;
54919;SDS011;63804;53.120;8.764;2023-10-31T07:32:53;3.15;;;0.60;;
54919;SDS011;63804;53.120;8.764;2023-10-31T07:35:20;2.88;;;0.75;;
54919;SDS011;63804;53.120;8.764;2023-10-31T07:37:48;2.53;;;0.50;;
54919;SDS011;63804;53.120;8.764;2023-10-31T07:40:16;1.05;;;0.52;;
54919;SDS011;63804;53.120;8.764;2023-10-31T07:42:43;2.63;;;0.60;;
54919;SDS011;63804;53.120;8.764;2023-10-31T07:45:11;2.17;;;0.50;;
54919;SDS011;63804;53.120;8.764;2023-10-31T07:47:39;1.38;;;0.73;;
54919;SDS011;63804;53.120;8.764;2023-10-31T07:50:06;3.33;;;0.70;;
54919;SDS011;63804;53.120;8.764;2023-10-31T07:52:34;2.58;;;0.55;;
54919;SDS011;63804;53.120;8.764;2023-10-31T07:55:02;0.82;;;0.50;;
54919;SDS011;63804;53.120;8.764;2023-10-31T07:57:29;1.45;;;0.50;;
54919;SDS011;63804;53.120;8.764;2023-10-31T07:59:57;3.40;;;0.73;;
54919;SDS011;63804;53.120;8.764;2023-10-31T08:02:25;2.58;;;0.77;;
54919;SDS011;63804;53.120;8.764;2023-10-31T08:04:56;1.58;;;0.55;;
54919;SDS011;63804;53.120;8.764;2023-10-31T08:07:23;2.35;;;0.60;;
54919;SDS011;63804;53.120;8.764;2023-10-31T08:09:51;2.92;;;0.43;;
54919;SDS011;63804;53.120;8.764;2023-10-31T08:12:19;1.85;;;0.55;;
54919;SDS011;63804;53.120;8.764;2023-10-31T08:14:46;2.35;;;0.63;;
54919;SDS011;63804;53.120;8.764;2023-10-31T08:17:14;1.85;;;0.40;;
54919;SDS011;63804;53.120;8.764;2023-10-31T08:19:41;2.75;;;0.73;;
54919;SDS011;63804;53.120;8.764;2023-10-31T08:22:09;1.55;;;0.40;;
54919;SDS011;63804;53.120;8.764;2023-10-31T08:24:37;1.35;;;0.50;;
54919;SDS011;63804;53.120;8.764;2023-10-31T08:27:05;3.83;;;0.80;;
54919;SDS011;63804;53.120;8.764;2023-10-31T08:29:34;1.35;;;0.70;;
54919;SDS011;63804;53.120;8.764;2023-10-31T08:32:02;1.10;;;0.73;;
54919;SDS011;63804;53.120;8.764;2023-10-31T08:34:30;1.90;;;0.50;;
54919;SDS011;63804;53.120;8.764;2023-10-31T08:36:58;2.90;;;0.63;;
54919;SDS011;63804;53.120;8.764;2023-10-31T08:39:26;1.90;;;0.60;;
54919;SDS011;63804;53.120;8.764;2023-10-31T08:41:54;3.53;;;0.63;;
54919;SDS011;63804;53.120;8.764;2023-10-31T08:44:23;1.48;;;0.57;;
54919;SDS011;63804;53.120;8.764;2023-10-31T08:46:51;1.02;;;0.50;;
54919;SDS011;63804;53.120;8.764;2023-10-31T08:49:19;1.10;;;0.40;;
54919;SDS011;63804;53.120;8.764;2023-10-31T08:51:47;1.95;;;0.68;;
54919;SDS011;63804;53.120;8.764;2023-10-31T08:54:14;1.55;;;0.55;;
54919;SDS011;63804;53.120;8.764;2023-10-31T08:56:42;0.98;;;0.40;;
54919;SDS011;63804;53.120;8.764;2023-10-31T08:59:09;1.40;;;0.43;;
54919;SDS011;63804;53.120;8.764;2023-10-31T09:01:37;1.55;;;0.47;;
54919;SDS011;63804;53.120;8.764;2023-10-31T09:04:05;0.90;;;0.50;;
54919;SDS011;63804;53.120;8.764;2023-10-31T09:06:33;0.75;;;0.30;;
54919;SDS011;63804;53.120;8.764;2023-10-31T09:09:00;1.35;;;0.30;;
54919;SDS011;63804;53.120;8.764;2023-10-31T09:11:28;1.48;;;0.47;;
54919;SDS011;63804;53.120;8.764;2023-10-31T09:13:56;1.65;;;0.40;;
54919;SDS011;63804;53.120;8.764;2023-10-31T09:16:27;0.93;;;0.40;;
54919;SDS011;63804;53.120;8.764;2023-10-31T09:18:54;2.63;;;0.43;;
54919;SDS011;63804;53.120;8.764;2023-10-31T09:21:22;0.60;;;0.52;;
54919;SDS011;63804;53.120;8.764;2023-10-31T09:23:49;1.05;;;0.50;;
54919;SDS011;63804;53.120;8.764;2023-10-31T09:26:17;1.30;;;0.43;;
54919;SDS011;63804;53.120;8.764;2023-10-31T09:28:45;3.35;;;0.60;;
54919;SDS011;63804;53.120;8.764;2023-10-31T09:31:17;1.33;;;0.47;;
54919;SDS011;63804;53.120;8.764;2023-10-31T09:33:45;2.17;;;0.70;;
54919;SDS011;63804;53.120;8.764;2023-10-31T09:36:13;2.55;;;0.88;;
54919;SDS011;63804;53.120;8.764;2023-10-31T09:38:41;2.42;;;0.80;;
54919;SDS011;63804;53.120;8.764;2023-10-31T09:41:09;1.52;;;0.45;;
54919;SDS011;63804;53.120;8.764;2023-10-31T09:43:37;1.15;;;0.55;;
54919;SDS011;63804;53.120;8.764;2023-10-31T09:46:05;1.80;;;0.75;;
54919;SDS011;63804;53.120;8.764;2023-10-31T09:48:32;3.08;;;0.70;;
54919;SDS011;63804;53.120;8.764;2023-10-31T09:51:02;2.53;;;0.65;;
54919;SDS011;63804;53.120;8.764;2023-10-31T09:53:30;2.90;;;0.80;;
54919;SDS011;63804;53.120;8.764;2023-10-31T09:56:01;0.93;;;0.60;;
54919;SDS011;63804;53.120;8.764;2023-10-31T09:58:29;2.53;;;0.63;;
54919;SDS011;63804;53.120;8.764;2023-10-31T10:00:56;1.17;;;0.60;;
54919;SDS011;63804;53.120;8.764;2023-10-31T10:03:24;2.65;;;0.90;;
54919;SDS011;63804;53.120;8.764;2023-10-31T10:05:54;2.83;;;0.80;;
54919;SDS011;63804;53.120;8.764;2023-10-31T10:08:22;1.75;;;0.80;;
54919;SDS011;63804;53.120;8.764;2023-10-31T10:10:50;2.10;;;0.88;;
54919;SDS011;63804;53.120;8.764;2023-10-31T10:13:20;2.67;;;0.93;;
54919;SDS011;63804;53.120;8.764;2023-10-31T10:15:48;2.92;;;0.90;;
54919;SDS011;63804;53.120;8.764;2023-10-31T10:18:30;2.58;;;0.80;;
54919;SDS011;63804;53.120;8.764;2023-10-31T10:21:00;4.22;;;1.10;;
54919;SDS011;63804;53.120;8.764;2023-10-31T10:23:29;5.35;;;1.33;;
54919;SDS011;63804;53.120;8.764;2023-10-31T10:26:02;3.10;;;1.20;;
54919;SDS011;63804;53.120;8.764;2023-10-31T10:28:30;2.15;;;1.10;;
54919;SDS011;63804;53.120;8.764;2023-10-31T10:30:59;2.83;;;1.25;;
54919;SDS011;63804;53.120;8.764;2023-10-31T10:33:26;1.98;;;0.88;;
54919;SDS011;63804;53.120;8.764;2023-10-31T10:35:54;5.30;;;1.40;;
54919;SDS011;63804;53.120;8.764;2023-10-31T10:38:23;2.75;;;1.10;;
54919;SDS011;63804;53.120;8.764;2023-10-31T10:40:51;3.75;;;1.30;;
54919;SDS011;63804;53.120;8.764;2023-10-31T10:43:23;4.15;;;1.10;;
54919;SDS011;63804;53.120;8.764;2023-10-31T10:45:56;4.13;;;1.20;;
54919;SDS011;63804;53.120;8.764;2023-10-31T10:48:25;3.20;;;1.13;;
54919;SDS011;63804;53.120;8.764;2023-10-31T10:50:59;3.78;;;1.05;;
54919;SDS011;63804;53.120;8.764;2023-10-31T10:53:55;4.15;;;1.20;;
54919;SDS011;63804;53.120;8.764;2023-10-31T10:56:36;3.60;;;1.33;;
54919;SDS011;63804;53.120;8.764;2023-10-31T10:59:12;2.88;;;1.13;;
54919;SDS011;63804;53.120;8.764;2023-10-31T11:01:43;3.22;;;1.10;;
54919;SDS011;63804;53.120;8.764;2023-10-31T11:04:13;5.88;;;1.05;;
54919;SDS011;63804;53.120;8.764;2023-10-31T11:06:41;6.97;;;1.48;;
54919;SDS011;63804;53.120;8.764;2023-10-31T11:09:10;2.65;;;0.98;;
54919;SDS011;63804;53.120;8.764;2023-10-31T11:11:38;2.10;;;1.15;;
54919;SDS011;63804;53.120;8.764;2023-10-31T11:14:07;3.45;;;1.02;;
54919;SDS011;63804;53.120;8.764;2023-10-31T11:17:11;5.18;;;1.20;;
54919;SDS011;63804;53.120;8.764;2023-10-31T11:19:36;3.97;;;1.20;;
54919;SDS011;63804;53.120;8.764;2023-10-31T11:22:05;4.03;;;1.33;;
54919;SDS011;63804;53.120;8.764;2023-10-31T11:24:34;4.03;;;1.30;;
54919;SDS011;63804;53.120;8.764;2023-10-31T11:27:05;4.32;;;1.70;;
54919;SDS011;63804;53.120;8.764;2023-10-31T11:29:33;3.38;;;1.45;;
54919;SDS011;63804;53.120;8.764;2023-10-31T11:32:03;2.50;;;1.20;;
54919;SDS011;63804;53.120;8.764;2023-10-31T11:34:36;3.03;;;1.40;;
54919;SDS011;63804;53.120;8.764;2023-10-31T11:42:57;6.28;;;1.15;;
54919;SDS011;63804;53.120;8.764;2023-10-31T11:50:38;2.47;;;1.00;;
54919;SDS011;63804;53.120;8.764;2023-10-31T11:53:10;5.57;;;1.30;;
54919;SDS011;63804;53.120;8.764;2023-10-31T11:55:40;5.00;;;1.30;;
54919;SDS011;63804;53.120;8.764;2023-10-31T12:00:40;2.38;;;1.10;;
54919;SDS011;63804;53.120;8.764;2023-10-31T12:03:09;3.10;;;1.10;;
54919;SDS011;63804;53.120;8.764;2023-10-31T12:05:37;2.88;;;1.02;;
54919;SDS011;63804;53.120;8.764;2023-10-31T12:08:05;4.40;;;1.25;;
54919;SDS011;63804;53.120;8.764;2023-10-31T12:10:33;4.68;;;1.50;;
54919;SDS011;63804;53.120;8.764;2023-10-31T12:13:00;6.50;;;1.40;;
54919;SDS011;63804;53.120;8.764;2023-10-31T12:15:28;4.97;;;1.50;;
54919;SDS011;63804;53.120;8.764;2023-10-31T12:17:59;6.10;;;1.38;;
54919;SDS011;63804;53.120;8.764;2023-10-31T12:20:29;3.60;;;1.15;;
54919;SDS011;63804;53.120;8.764;2023-10-31T12:23:03;4.15;;;1.27;;
54919;SDS011;63804;53.120;8.764;2023-10-31T12:25:32;3.90;;;1.08;;
54919;SDS011;63804;53.120;8.764;2023-10-31T12:28:03;6.45;;;1.20;;
54919;SDS011;63804;53.120;8.764;2023-10-31T12:30:31;3.35;;;1.20;;
54919;SDS011;63804;53.120;8.764;2023-10-31T12:32:58;3.30;;;1.45;;
54919;SDS011;63804;53.120;8.764;2023-10-31T12:35:27;4.30;;;1.75;;
54919;SDS011;63804;53.120;8.764;2023-10-31T12:37:55;3.17;;;0.90;;
54919;SDS011;63804;53.120;8.764;2023-10-31T12:40:24;1.17;;;0.47;;
54919;SDS011;63804;53.120;8.764;2023-10-31T12:42:52;2.38;;;0.40;;
54919;SDS011;63804;53.120;8.764;2023-10-31T12:45:20;3.90;;;0.68;;
54919;SDS011;63804;53.120;8.764;2023-10-31T12:48:00;1.70;;;0.57;;
54919;SDS011;63804;53.120;8.764;2023-10-31T12:50:32;3.15;;;0.70;;
54919;SDS011;63804;53.120;8.764;2023-10-31T12:53:01;3.80;;;0.60;;
54919;SDS011;63804;53.120;8.764;2023-10-31T12:55:31;4.30;;;0.50;;
54919;SDS011;63804;53.120;8.764;2023-10-31T12:58:06;1.75;;;0.30;;
54919;SDS011;63804;53.120;8.764;2023-10-31T13:00:34;1.75;;;0.68;;
54919;SDS011;63804;53.120;8.764;2023-10-31T13:03:06;2.75;;;0.60;;
54919;SDS011;63804;53.120;8.764;2023-10-31T13:05:35;2.03;;;0.52;;
54919;SDS011;63804;53.120;8.764;2023-10-31T13:08:03;1.67;;;0.70;;
54919;SDS011;63804;53.120;8.764;2023-10-31T13:10:33;2.58;;;0.75;;
54919;SDS011;63804;53.120;8.764;2023-10-31T13:13:01;3.70;;;0.70;;
54919;SDS011;63804;53.120;8.764;2023-10-31T13:15:28;2.15;;;0.70;;
54919;SDS011;63804;53.120;8.764;2023-10-31T13:17:56;4.45;;;0.88;;
54919;SDS011;63804;53.120;8.764;2023-10-31T13:20:27;2.20;;;0.70;;
54919;SDS011;63804;53.120;8.764;2023-10-31T13:22:56;2.45;;;0.80;;
54919;SDS011;63804;53.120;8.764;2023-10-31T13:25:25;2.97;;;0.80;;
54919;SDS011;63804;53.120;8.764;2023-10-31T13:27:52;1.58;;;0.63;;
54919;SDS011;63804;53.120;8.764;2023-10-31T13:30:21;2.38;;;0.63;;
54919;SDS011;63804;53.120;8.764;2023-10-31T13:32:51;2.63;;;0.80;;
54919;SDS011;63804;53.120;8.764;2023-10-31T13:35:20;2.40;;;0.80;;
54919;SDS011;63804;53.120;8.764;2023-10-31T13:37:51;2.00;;;0.45;;
54919;SDS011;63804;53.120;8.764;2023-10-31T13:40:19;1.58;;;0.52;;
54919;SDS011;63804;53.120;8.764;2023-10-31T13:42:46;2.08;;;0.65;;
54919;SDS011;63804;53.120;8.764;2023-10-31T13:45:14;1.33;;;0.50;;
54919;SDS011;63804;53.120;8.764;2023-10-31T13:47:41;1.63;;;0.70;;
54919;SDS011;63804;53.120;8.764;2023-10-31T13:50:09;1.27;;;0.57;;
54919;SDS011;63804;53.120;8.764;2023-10-31T13:52:37;2.80;;;0.73;;
54919;SDS011;63804;53.120;8.764;2023-10-31T13:55:06;2.15;;;0.60;;
54919;SDS011;63804;53.120;8.764;2023-10-31T13:57:34;4.72;;;0.90;;
54919;SDS011;63804;53.120;8.764;2023-10-31T14:00:02;1.67;;;0.70;;
54919;SDS011;63804;53.120;8.764;2023-10-31T14:02:30;2.80;;;0.60;;
54919;SDS011;63804;53.120;8.764;2023-10-31T14:05:00;2.80;;;0.80;;
54919;SDS011;63804;53.120;8.764;2023-10-31T14:07:28;1.70;;;0.65;;
54919;SDS011;63804;53.120;8.764;2023-10-31T14:09:57;1.48;;;0.73;;
54919;SDS011;63804;53.120;8.764;2023-10-31T14:12:25;3.65;;;0.70;;
54919;SDS011;63804;53.120;8.764;2023-10-31T14:14:52;2.45;;;0.80;;
54919;SDS011;63804;53.120;8.764;2023-10-31T14:17:22;2.13;;;0.85;;
54919;SDS011;63804;53.120;8.764;2023-10-31T14:19:50;5.60;;;0.93;;
54919;SDS011;63804;53.120;8.764;2023-10-31T14:22:19;3.92;;;0.77;;
54919;SDS011;63804;53.120;8.764;2023-10-31T14:24:48;3.05;;;0.90;;
54919;SDS011;63804;53.120;8.764;2023-10-31T14:27:16;3.28;;;1.10;;
54919;SDS011;63804;53.120;8.764;2023-10-31T14:29:46;2.92;;;0.90;;
54919;SDS011;63804;53.120;8.764;2023-10-31T14:32:14;3.20;;;0.90;;
54919;SDS011;63804;53.120;8.764;2023-10-31T14:34:42;3.20;;;1.20;;
54919;SDS011;63804;53.120;8.764;2023-10-31T14:37:09;3.22;;;0.95;;
54919;SDS011;63804;53.120;8.764;2023-10-31T14:39:38;4.13;;;1.30;;
54919;SDS011;63804;53.120;8.764;2023-10-31T14:42:06;5.72;;;1.20;;
54919;SDS011;63804;53.120;8.764;2023-10-31T14:44:33;3.28;;;1.20;;
54919;SDS011;63804;53.120;8.764;2023-10-31T14:47:01;4.25;;;0.93;;
54919;SDS011;63804;53.120;8.764;2023-10-31T14:49:29;3.22;;;1.13;;
54919;SDS011;63804;53.120;8.764;2023-10-31T14:51:58;4.28;;;1.27;;
54919;SDS011;63804;53.120;8.764;2023-10-31T14:54:28;4.88;;;1.17;;
54919;SDS011;63804;53.120;8.764;2023-10-31T14:56:56;3.80;;;1.30;;
54919;SDS011;63804;53.120;8.764;2023-10-31T14:59:24;5.63;;;1.30;;
54919;SDS011;63804;53.120;8.764;2023-10-31T15:01:52;3.03;;;1.10;;
54919;SDS011;63804;53.120;8.764;2023-10-31T15:04:19;5.50;;;1.30;;
54919;SDS011;63804;53.120;8.764;2023-10-31T15:06:47;6.35;;;1.35;;